createdAt,value
2023-05-05T00:00:15.930Z,73.41
2023-05-05T00:02:44.245Z,73.64
2023-05-05T00:05:12.286Z,73.81
2023-05-05T00:07:40.346Z,74.01
2023-05-05T00:10:10.628Z,74.45
2023-05-05T00:12:38.709Z,74.30
2023-05-05T00:15:07.862Z,74.53
2023-05-05T00:17:35.942Z,75.23
2023-05-05T00:20:04.252Z,75.07
2023-05-05T00:22:32.282Z,75.41
2023-05-05T00:25:00.272Z,76.02
2023-05-05T00:27:29.639Z,76.43
2023-05-05T00:29:57.708Z,76.55
2023-05-05T00:32:25.957Z,76.20
2023-05-05T00:34:54.628Z,76.29
2023-05-05T00:37:22.691Z,76.02
2023-05-05T00:39:50.845Z,76.00
2023-05-05T00:42:19.131Z,75.94
2023-05-05T00:44:48.614Z,75.87
2023-05-05T00:47:16.921Z,76.00
2023-05-05T00:49:45.093Z,76.14
2023-05-05T00:52:13.194Z,75.97
2023-05-05T00:54:41.386Z,75.88
2023-05-05T00:57:09.510Z,76.00
2023-05-05T00:59:39.257Z,75.86
2023-05-05T01:02:08.825Z,76.15
2023-05-05T01:04:36.937Z,75.97
2023-05-05T01:07:13.613Z,76.27
2023-05-05T01:09:57.923Z,76.51
2023-05-05T01:12:42.516Z,76.33
2023-05-05T01:15:17.125Z,76.11
2023-05-05T01:17:53.610Z,76.11
2023-05-05T01:20:28.601Z,75.88
2023-05-05T01:23:00.658Z,75.56
2023-05-05T01:26:10.276Z,76.39
2023-05-05T01:29:02.155Z,75.92
2023-05-05T01:31:53.177Z,75.79
2023-05-05T01:34:26.451Z,75.38
2023-05-05T01:37:04.718Z,75.58
2023-05-05T01:39:36.098Z,75.44
2023-05-05T01:42:09.433Z,75.99
2023-05-05T01:44:38.914Z,75.46
2023-05-05T01:47:10.300Z,75.90
2023-05-05T01:49:39.383Z,75.72
2023-05-05T01:52:08.251Z,75.71
2023-05-05T01:54:37.701Z,75.71
2023-05-05T01:57:08.501Z,75.67
2023-05-05T01:59:39.136Z,75.68
2023-05-05T02:02:11.490Z,75.59
2023-05-05T02:04:44.648Z,75.71
2023-05-05T02:07:14.774Z,75.44
2023-05-05T02:09:45.083Z,75.30
2023-05-05T02:12:13.985Z,75.39
2023-05-05T02:14:44.218Z,75.32
2023-05-05T02:17:18.173Z,75.01
2023-05-05T02:19:48.931Z,75.35
2023-05-05T02:22:17.147Z,75.04
2023-05-05T02:24:45.928Z,74.87
2023-05-05T02:27:18.932Z,75.30
2023-05-05T02:29:50.539Z,75.12
2023-05-05T02:32:24.360Z,75.38
2023-05-05T02:34:54.285Z,75.42
2023-05-05T02:37:25.771Z,75.87
2023-05-05T02:40:02.641Z,75.85
2023-05-05T02:42:37.524Z,76.19
2023-05-05T02:45:12.375Z,76.58
2023-05-05T02:47:44.892Z,76.65
2023-05-05T02:50:13.437Z,76.57
2023-05-05T02:52:47.464Z,77.12
2023-05-05T02:55:16.860Z,77.57
2023-05-05T02:57:50.934Z,77.76
2023-05-05T03:00:24.312Z,78.61
2023-05-05T03:03:05.359Z,78.42
2023-05-05T03:05:42.735Z,78.85
2023-05-05T03:08:15.341Z,78.46
2023-05-05T03:10:48.737Z,79.45
2023-05-05T03:13:19.719Z,79.08
2023-05-05T03:15:50.738Z,78.87
2023-05-05T03:18:25.549Z,78.79
2023-05-05T03:21:07.943Z,79.07
2023-05-05T03:23:38.250Z,79.84
2023-05-05T03:26:11.376Z,79.60
2023-05-05T03:28:43.193Z,79.70
2023-05-05T03:31:30.430Z,79.52
2023-05-05T03:34:02.789Z,79.48
2023-05-05T03:36:36.967Z,79.01
2023-05-05T03:39:05.251Z,78.93
2023-05-05T03:41:34.984Z,78.93
2023-05-05T03:44:04.190Z,78.68
2023-05-05T03:46:32.462Z,78.28
2023-05-05T03:49:01.956Z,77.93
2023-05-05T03:51:30.006Z,77.93
2023-05-05T03:53:58.909Z,77.56
2023-05-05T03:56:26.993Z,77.32
2023-05-05T03:58:55.093Z,77.07
2023-05-05T04:01:23.425Z,77.33
2023-05-05T04:03:52.074Z,77.04
2023-05-05T04:06:22.372Z,76.85
2023-05-05T04:08:50.444Z,76.56
2023-05-05T04:11:18.568Z,76.40
2023-05-05T04:13:46.726Z,76.48
2023-05-05T04:16:14.893Z,76.29
2023-05-05T04:18:42.984Z,76.40
2023-05-05T04:21:11.086Z,76.39
2023-05-05T04:23:41.075Z,76.53
2023-05-05T04:26:09.199Z,76.11
2023-05-05T04:28:37.259Z,76.06
2023-05-05T04:31:06.172Z,75.89
2023-05-05T04:33:37.458Z,75.76
2023-05-05T04:36:06.197Z,76.05
2023-05-05T04:38:34.551Z,75.90
2023-05-05T04:41:07.529Z,75.94
2023-05-05T04:43:37.896Z,75.53
2023-05-05T04:46:06.451Z,75.52
2023-05-05T04:48:37.955Z,75.41
2023-05-05T04:51:07.155Z,75.42
2023-05-05T04:53:36.064Z,75.18
2023-05-05T04:56:04.327Z,74.80
2023-05-05T04:58:33.791Z,74.68
2023-05-05T05:01:01.862Z,74.16
2023-05-05T05:03:32.021Z,73.82
2023-05-05T05:06:00.434Z,73.61
2023-05-05T05:08:28.471Z,73.22
2023-05-05T05:10:56.468Z,72.48
2023-05-05T05:13:24.658Z,71.24
2023-05-05T05:15:54.210Z,69.64
2023-05-05T05:18:22.377Z,68.25
2023-05-05T05:20:51.611Z,68.52
2023-05-05T05:23:19.699Z,68.73
2023-05-05T05:25:48.103Z,68.52
2023-05-05T05:28:18.842Z,68.49
2023-05-05T05:30:52.136Z,68.54
2023-05-05T05:33:22.067Z,68.77
2023-05-05T05:35:50.780Z,69.01
2023-05-05T05:38:21.137Z,70.08
2023-05-05T05:40:51.791Z,69.48
2023-05-05T05:43:19.864Z,68.91
2023-05-05T05:45:48.012Z,68.54
2023-05-05T05:48:17.122Z,69.03
2023-05-05T05:50:46.785Z,68.77
2023-05-05T05:53:15.023Z,69.30
2023-05-05T05:55:43.613Z,68.97
2023-05-05T05:58:11.737Z,68.25
2023-05-05T06:00:39.790Z,68.13
2023-05-05T06:03:10.446Z,68.09
2023-05-05T06:05:40.036Z,67.46
2023-05-05T06:08:09.530Z,66.80
2023-05-05T06:10:42.774Z,66.12
2023-05-05T06:13:16.251Z,65.86
2023-05-05T06:15:47.649Z,65.02
2023-05-05T06:18:16.495Z,63.79
2023-05-05T06:20:44.909Z,64.04
2023-05-05T06:23:16.426Z,64.77
2023-05-05T06:25:49.564Z,64.29
2023-05-05T06:28:17.725Z,64.06
2023-05-05T06:30:45.741Z,63.78
2023-05-05T06:33:13.693Z,63.06
2023-05-05T06:35:41.752Z,62.68
2023-05-05T06:38:10.238Z,63.30
2023-05-05T06:40:39.606Z,63.68
2023-05-05T06:43:07.759Z,64.15
2023-05-05T06:45:43.770Z,64.89
2023-05-05T06:48:12.008Z,65.98
2023-05-05T06:50:39.957Z,65.67
2023-05-05T06:53:08.023Z,65.75
2023-05-05T06:55:36.019Z,66.05
2023-05-05T06:58:05.475Z,66.38
2023-05-05T07:00:33.634Z,66.32
2023-05-05T07:03:01.794Z,65.51
2023-05-05T07:05:29.806Z,65.46
2023-05-05T07:07:58.450Z,65.20
2023-05-05T07:10:27.396Z,64.89
2023-05-05T07:12:55.921Z,64.25
2023-05-05T07:15:29.118Z,63.56
2023-05-05T07:17:58.115Z,63.66
2023-05-05T07:20:26.872Z,63.10
2023-05-05T07:22:55.261Z,62.75
2023-05-05T07:25:23.275Z,61.95
2023-05-05T07:27:51.568Z,61.56
2023-05-05T07:30:20.093Z,61.09
2023-05-05T07:32:51.209Z,61.13
2023-05-05T07:35:19.524Z,60.43
2023-05-05T07:37:47.788Z,59.99
2023-05-05T07:40:15.826Z,59.67
2023-05-05T07:42:43.918Z,59.61
2023-05-05T07:45:12.832Z,59.37
2023-05-05T07:47:41.681Z,58.74
2023-05-05T07:50:11.806Z,58.39
2023-05-05T07:55:11.387Z,58.28
2023-05-05T07:57:39.583Z,57.48
2023-05-05T08:00:09.435Z,57.57
2023-05-05T08:02:41.288Z,57.16
2023-05-05T08:05:11.469Z,56.72
2023-05-05T08:07:41.455Z,56.12
2023-05-05T08:10:10.995Z,55.56
2023-05-05T08:12:39.191Z,55.22
2023-05-05T08:15:08.255Z,55.21
2023-05-05T08:17:50.710Z,53.98
2023-05-05T08:20:21.633Z,55.05
2023-05-05T08:22:50.735Z,54.85
2023-05-05T08:25:18.751Z,54.93
2023-05-05T08:27:46.825Z,54.68
2023-05-05T08:30:17.269Z,54.32
2023-05-05T08:32:45.414Z,54.00
2023-05-05T08:35:13.657Z,53.53
2023-05-05T08:37:43.296Z,53.30
2023-05-05T08:40:14.179Z,52.74
2023-05-05T08:42:42.403Z,52.63
2023-05-05T08:45:11.616Z,52.18
2023-05-05T08:47:40.758Z,51.78
2023-05-05T08:50:12.017Z,51.60
2023-05-05T08:52:44.347Z,51.10
2023-05-05T08:55:24.081Z,51.03
2023-05-05T08:57:53.644Z,51.03
2023-05-05T09:00:22.929Z,51.08
2023-05-05T09:02:51.402Z,50.40
2023-05-05T09:05:19.617Z,50.19
2023-05-05T09:07:47.719Z,50.46
2023-05-05T09:10:17.352Z,49.50
2023-05-05T09:12:45.508Z,50.22
2023-05-05T09:15:15.534Z,49.41
2023-05-05T09:17:43.801Z,50.03
2023-05-05T09:20:13.028Z,49.87
2023-05-05T09:22:42.647Z,49.50
2023-05-05T09:25:12.738Z,49.07
2023-05-05T09:27:43.459Z,48.76
2023-05-05T09:30:13.157Z,48.78
2023-05-05T09:32:49.072Z,48.65
2023-05-05T09:35:17.799Z,48.98
2023-05-05T09:37:46.478Z,49.04
2023-05-05T09:40:16.385Z,49.09
2023-05-05T09:42:46.021Z,49.32
2023-05-05T09:45:27.975Z,48.68
2023-05-05T09:47:59.754Z,49.76
2023-05-05T09:50:30.967Z,49.77
2023-05-05T09:53:01.092Z,49.88
2023-05-05T09:55:31.033Z,49.63
2023-05-05T09:58:19.632Z,49.20
2023-05-05T10:00:48.172Z,49.86
2023-05-05T10:03:16.375Z,49.68
2023-05-05T10:05:52.525Z,49.65
2023-05-05T10:08:22.053Z,49.74
2023-05-05T10:10:54.462Z,48.73
2023-05-05T10:13:26.136Z,48.98
2023-05-05T10:15:55.968Z,48.49
2023-05-05T10:18:26.084Z,49.42
2023-05-05T10:20:58.468Z,48.51
2023-05-05T10:23:32.028Z,48.72
2023-05-05T10:26:03.302Z,48.00
2023-05-05T10:28:35.714Z,47.28
2023-05-05T10:31:13.170Z,46.33
2023-05-05T10:33:55.551Z,46.38
2023-05-05T10:36:25.390Z,45.58
2023-05-05T10:38:56.314Z,45.09
2023-05-05T10:41:25.784Z,45.79
2023-05-05T10:43:57.234Z,45.60
2023-05-05T10:46:26.688Z,46.06
2023-05-05T10:49:01.120Z,46.97
2023-05-05T10:51:40.636Z,46.48
2023-05-05T10:54:15.055Z,45.89
2023-05-05T10:56:44.083Z,46.19
2023-05-05T10:59:47.846Z,46.23
2023-05-05T11:02:23.642Z,46.51
2023-05-05T11:05:14.306Z,46.35
2023-05-05T11:07:43.082Z,46.99
2023-05-05T11:10:12.668Z,46.80
2023-05-05T11:13:14.126Z,45.52
2023-05-05T11:15:43.583Z,45.42
2023-05-05T11:18:35.915Z,44.08
2023-05-05T11:21:21.847Z,45.01
2023-05-05T11:23:51.723Z,45.25
2023-05-05T11:26:41.075Z,45.06
2023-05-05T11:29:09.317Z,44.86
2023-05-05T11:31:38.991Z,44.09
2023-05-05T11:34:29.677Z,42.43
2023-05-05T11:37:08.743Z,42.08
2023-05-05T11:39:48.421Z,42.41
2023-05-05T11:42:24.728Z,41.85
2023-05-05T11:44:53.641Z,42.56
2023-05-05T11:47:35.285Z,41.07
2023-05-05T11:50:23.424Z,41.18
2023-05-05T11:52:51.767Z,41.73
2023-05-05T11:55:26.021Z,41.27
2023-05-05T11:57:54.037Z,41.63
2023-05-05T12:00:32.760Z,39.92
2023-05-05T12:03:02.495Z,40.59
2023-05-05T12:05:30.985Z,41.10
2023-05-05T12:07:59.810Z,41.28
2023-05-05T12:10:28.817Z,41.20
2023-05-05T12:12:57.222Z,40.68
2023-05-05T12:15:34.391Z,39.65
2023-05-05T12:18:05.960Z,40.68
2023-05-05T12:20:35.149Z,41.06
2023-05-05T12:23:04.938Z,41.80
2023-05-05T12:25:38.198Z,41.48
2023-05-05T12:28:08.082Z,42.83
2023-05-05T12:30:36.677Z,42.82
2023-05-05T12:33:07.798Z,43.16
2023-05-05T12:35:37.110Z,42.81
2023-05-05T12:38:05.248Z,42.95
2023-05-05T12:40:47.751Z,42.39
2023-05-05T12:43:32.781Z,42.05
2023-05-05T12:46:06.298Z,42.14
2023-05-05T12:48:38.035Z,42.59
2023-05-05T12:51:20.905Z,41.88
2023-05-05T12:53:50.663Z,41.76
2023-05-05T12:56:36.326Z,40.55
2023-05-05T12:59:06.532Z,40.50
2023-05-05T13:01:35.296Z,39.96
2023-05-05T13:04:13.149Z,38.61
2023-05-05T13:06:42.634Z,39.35
2023-05-05T13:09:23.173Z,39.66
2023-05-05T13:11:51.639Z,39.64
2023-05-05T13:14:19.857Z,40.08
2023-05-05T13:16:48.079Z,39.91
2023-05-05T13:19:17.503Z,39.71
2023-05-05T13:21:45.455Z,40.08
2023-05-05T13:24:28.128Z,40.21
2023-05-05T13:26:59.471Z,40.65
2023-05-05T13:29:31.398Z,40.17
2023-05-05T13:32:00.052Z,41.03
2023-05-05T13:34:29.667Z,40.77
2023-05-05T13:36:57.816Z,41.42
2023-05-05T13:39:25.927Z,41.18
2023-05-05T13:41:54.586Z,41.00
2023-05-05T13:44:23.061Z,41.88
2023-05-05T13:46:51.073Z,42.50
2023-05-05T13:49:20.063Z,42.02
2023-05-05T13:51:49.514Z,42.15
2023-05-05T13:54:17.566Z,42.41
2023-05-05T13:56:45.738Z,42.89
2023-05-05T13:59:13.919Z,43.05
2023-05-05T14:01:42.032Z,43.54
2023-05-05T14:04:10.181Z,43.39
2023-05-05T14:06:38.194Z,43.72
2023-05-05T14:09:08.184Z,43.92
2023-05-05T14:11:36.389Z,44.07
2023-05-05T14:14:04.525Z,44.76
2023-05-05T14:16:32.722Z,45.11
2023-05-05T14:19:00.740Z,45.10
2023-05-05T14:21:28.829Z,45.68
2023-05-05T14:23:56.873Z,46.07
2023-05-05T14:26:27.270Z,46.36
2023-05-05T14:28:55.297Z,47.20
2023-05-05T14:31:23.370Z,48.42
2023-05-05T14:33:51.383Z,49.12
2023-05-05T14:36:19.452Z,50.51
2023-05-05T14:38:47.602Z,51.70
2023-05-05T14:41:15.731Z,50.65
2023-05-05T14:43:45.258Z,52.76
2023-05-05T14:46:13.357Z,56.09
2023-05-05T14:48:41.419Z,60.08
2023-05-05T14:51:09.457Z,59.63
2023-05-05T14:53:37.510Z,61.04
2023-05-05T14:56:06.155Z,62.40
2023-05-05T14:58:34.207Z,62.50
2023-05-05T15:01:03.649Z,63.99
2023-05-05T15:03:32.316Z,64.85
2023-05-05T15:06:00.611Z,67.67
2023-05-05T15:08:28.725Z,66.82
2023-05-05T15:10:56.685Z,67.44
2023-05-05T15:13:25.031Z,67.80
2023-05-05T15:15:53.090Z,68.98
2023-05-05T15:18:22.645Z,70.57
2023-05-05T15:20:50.928Z,70.55
2023-05-05T15:23:19.021Z,70.95
2023-05-05T15:25:47.067Z,71.41
2023-05-05T15:28:15.161Z,71.37
2023-05-05T15:30:45.383Z,71.20
2023-05-05T15:33:13.412Z,70.51
2023-05-05T15:35:42.812Z,70.99
2023-05-05T15:38:10.870Z,70.25
2023-05-05T15:40:38.937Z,69.94
2023-05-05T15:43:06.933Z,69.49
2023-05-05T15:45:35.210Z,68.79
2023-05-05T15:48:03.326Z,69.06
2023-05-05T15:50:31.368Z,69.06
2023-05-05T15:53:00.873Z,69.71
2023-05-05T15:55:29.358Z,69.18
2023-05-05T15:57:57.354Z,70.39
2023-05-05T16:00:25.698Z,70.73
2023-05-05T16:02:53.793Z,70.54
2023-05-05T16:05:23.199Z,70.84
2023-05-05T16:07:52.569Z,70.64
2023-05-05T16:10:22.216Z,71.20
2023-05-05T16:12:52.166Z,71.31
2023-05-05T16:15:20.597Z,71.47
2023-05-05T16:17:48.588Z,72.21
2023-05-05T16:20:16.960Z,71.93
2023-05-05T16:22:44.962Z,72.51
2023-05-05T16:25:12.962Z,73.62
2023-05-05T16:27:42.371Z,74.44
2023-05-05T16:30:12.852Z,74.04
2023-05-05T16:32:40.899Z,74.95
2023-05-05T16:35:09.538Z,74.65
2023-05-05T16:37:37.649Z,74.75
2023-05-05T16:40:07.213Z,75.04
2023-05-05T16:42:35.394Z,74.95
2023-05-05T16:45:05.321Z,75.99
2023-05-05T16:47:33.438Z,75.47
2023-05-05T16:50:01.501Z,75.71
2023-05-05T16:52:29.573Z,75.56
2023-05-05T16:54:57.620Z,75.07
2023-05-05T16:57:25.630Z,74.92
2023-05-05T16:59:56.398Z,75.36
2023-05-05T17:02:26.117Z,75.59
2023-05-05T17:04:54.181Z,76.19
2023-05-05T17:07:22.292Z,75.77
2023-05-05T17:09:51.083Z,76.13
2023-05-05T17:12:19.183Z,76.12
2023-05-05T17:14:47.334Z,76.60
2023-05-05T17:17:15.458Z,77.09
2023-05-05T17:19:44.965Z,76.67
2023-05-05T17:22:13.034Z,76.50
2023-05-05T17:24:41.133Z,76.49
2023-05-05T17:27:09.231Z,76.62
2023-05-05T17:29:40.835Z,77.02
2023-05-05T17:32:09.327Z,77.33
2023-05-05T17:34:37.533Z,76.76
2023-05-05T17:37:06.970Z,76.39
2023-05-05T17:39:34.981Z,76.33
2023-05-05T17:42:03.053Z,76.41
2023-05-05T17:44:32.679Z,76.74
2023-05-05T17:47:02.757Z,76.97
2023-05-05T17:49:30.969Z,76.53
2023-05-05T17:51:59.005Z,76.80
2023-05-05T17:54:28.431Z,77.31
2023-05-05T17:56:56.487Z,77.00
2023-05-05T17:59:24.479Z,77.31
2023-05-05T18:01:52.514Z,77.63
2023-05-05T18:04:20.522Z,77.91
2023-05-05T18:06:48.656Z,78.29
2023-05-05T18:09:17.282Z,78.24
2023-05-05T18:11:46.630Z,78.79
2023-05-05T18:14:14.747Z,79.53
2023-05-05T18:16:47.709Z,79.50
2023-05-05T18:19:16.520Z,79.52
2023-05-05T18:21:44.581Z,80.26
2023-05-05T18:26:50.329Z,81.21
2023-05-05T18:29:18.543Z,81.77
2023-05-05T18:31:48.387Z,81.91
2023-05-05T18:34:17.147Z,82.49
2023-05-05T18:36:45.329Z,82.96
2023-05-05T18:39:13.531Z,83.09
2023-05-05T18:41:41.864Z,82.94
2023-05-05T18:44:11.664Z,83.12
2023-05-05T18:46:39.799Z,83.27
2023-05-05T18:49:08.422Z,83.24
2023-05-05T18:51:36.632Z,83.55
2023-05-05T18:54:04.892Z,83.63
2023-05-05T18:56:33.019Z,84.24
2023-05-05T18:59:01.096Z,84.58
2023-05-05T19:01:31.084Z,84.72
2023-05-05T19:03:59.137Z,84.69
2023-05-05T19:06:27.360Z,85.40
2023-05-05T19:08:55.488Z,85.02
2023-05-05T19:11:23.539Z,85.36
2023-05-05T19:13:51.605Z,85.78
2023-05-05T19:16:19.690Z,85.49
2023-05-05T19:18:49.362Z,85.89
2023-05-05T19:21:17.432Z,86.07
2023-05-05T19:23:45.511Z,85.86
2023-05-05T19:26:13.979Z,85.94
2023-05-05T19:28:42.050Z,86.10
2023-05-05T19:31:10.122Z,86.10
2023-05-05T19:33:38.365Z,85.88
2023-05-05T19:36:08.251Z,86.20
2023-05-05T19:38:36.684Z,86.01
2023-05-05T19:41:04.668Z,86.25
2023-05-05T19:43:32.700Z,86.88
2023-05-05T19:46:01.693Z,87.00
2023-05-05T19:48:29.928Z,87.02
2023-05-05T19:50:57.956Z,87.04
2023-05-05T19:53:27.910Z,86.55
2023-05-05T19:55:56.179Z,87.18
2023-05-05T19:58:24.934Z,87.05
2023-05-05T20:00:53.049Z,87.50
2023-05-05T20:03:21.353Z,87.86
2023-05-05T20:05:49.656Z,88.35
2023-05-05T20:08:17.739Z,88.91
2023-05-05T20:10:47.160Z,89.42
2023-05-05T20:13:15.216Z,89.65
2023-05-05T20:15:43.397Z,89.96
2023-05-05T20:18:11.612Z,90.14
2023-05-05T20:20:39.659Z,90.21
2023-05-05T20:23:07.709Z,90.59
2023-05-05T20:25:35.836Z,91.04
2023-05-05T20:28:05.412Z,91.58
2023-05-05T20:30:33.483Z,91.48
2023-05-05T20:33:01.555Z,91.46
2023-05-05T20:35:29.581Z,91.52
2023-05-05T20:37:57.631Z,91.38
2023-05-05T20:40:26.782Z,92.39
2023-05-05T20:42:54.873Z,92.69
2023-05-05T20:45:24.978Z,93.67
2023-05-05T20:47:53.311Z,93.92
2023-05-05T20:50:21.529Z,94.53
2023-05-05T20:52:49.826Z,95.13
2023-05-05T20:55:17.987Z,95.37
2023-05-05T20:57:46.006Z,95.86
2023-05-05T21:00:14.381Z,95.51
2023-05-05T21:02:44.175Z,95.26
2023-05-05T21:05:12.636Z,95.64
2023-05-05T21:07:40.869Z,95.64
2023-05-05T21:10:10.178Z,96.18
2023-05-05T21:12:38.407Z,95.88
2023-05-05T21:15:08.364Z,96.54
2023-05-05T21:17:37.664Z,95.78
2023-05-05T21:20:08.700Z,95.91
2023-05-05T21:22:36.972Z,94.79
2023-05-05T21:25:15.672Z,94.81
2023-05-05T21:27:43.845Z,94.28
2023-05-05T21:30:13.133Z,94.15
2023-05-05T21:32:42.156Z,94.33
2023-05-05T21:35:11.743Z,94.32
2023-05-05T21:37:40.149Z,94.39
2023-05-05T21:40:13.550Z,94.63
2023-05-05T21:42:42.457Z,94.95
2023-05-05T21:45:12.027Z,95.80
2023-05-05T21:47:40.124Z,96.14
2023-05-05T21:50:09.844Z,96.40
2023-05-05T21:52:39.641Z,96.47
2023-05-05T21:55:08.359Z,96.26
2023-05-05T21:57:36.424Z,95.64
2023-05-05T22:00:05.716Z,95.40
2023-05-05T22:02:40.507Z,95.45
2023-05-05T22:05:09.298Z,95.22
2023-05-05T22:07:37.534Z,95.16
2023-05-05T22:10:08.216Z,95.16
2023-05-05T22:12:36.601Z,94.70
2023-05-05T22:15:05.086Z,94.95
2023-05-05T22:17:33.212Z,94.36
2023-05-05T22:20:01.246Z,93.86
2023-05-05T22:22:29.294Z,94.17
2023-05-05T22:24:57.314Z,93.75
2023-05-05T22:27:26.904Z,93.86
2023-05-05T22:29:54.971Z,93.62
2023-05-05T22:32:23.024Z,93.67
2023-05-05T22:34:51.115Z,93.60
2023-05-05T22:37:19.191Z,93.26
2023-05-05T22:39:47.247Z,93.26
2023-05-05T22:42:15.400Z,92.80
2023-05-05T22:44:44.897Z,92.43
2023-05-05T22:47:13.316Z,92.61
2023-05-05T22:49:41.490Z,92.42
2023-05-05T22:52:09.683Z,92.32
2023-05-05T22:54:37.676Z,92.27
2023-05-05T22:57:05.742Z,92.48
2023-05-05T22:59:33.769Z,92.39
2023-05-05T23:02:03.174Z,92.29
2023-05-05T23:04:31.293Z,92.11
2023-05-05T23:06:59.391Z,92.57
2023-05-05T23:09:27.440Z,92.41
2023-05-05T23:11:55.525Z,92.19
2023-05-05T23:14:23.543Z,92.42
2023-05-05T23:16:51.672Z,92.15
2023-05-05T23:19:21.256Z,92.18
2023-05-05T23:21:53.642Z,92.00
2023-05-05T23:24:22.749Z,91.87
2023-05-05T23:26:52.020Z,91.71
2023-05-05T23:29:20.078Z,91.88
2023-05-05T23:31:48.524Z,91.92
2023-05-05T23:34:16.707Z,91.80
2023-05-05T23:36:46.202Z,92.16
2023-05-05T23:39:14.271Z,92.23
2023-05-05T23:41:42.406Z,92.64
2023-05-05T23:44:10.463Z,92.90
2023-05-05T23:46:38.529Z,92.75
2023-05-05T23:49:06.629Z,93.32
2023-05-05T23:51:34.714Z,93.63
2023-05-05T23:54:04.100Z,93.37
2023-05-05T23:56:32.257Z,93.34
2023-05-05T23:59:00.235Z,93.56
